Time;durP1;ratioP1;P1;durP2;ratioP2;P2;SDS_P1;SDS_P2;PMS_P1;PMS_P2;Temp;Humidity;BMP_temperature;BMP_pressure;BME280_temperature;BME280_humidity;BME280_pressure;Samples;Min_cycle;Max_cycle;Signal;HPM_P1;HPM_P2
2023/01/06 00:00:37;;;;;;;1.77;1.30;;;;;;;8.94;82.12;99196.16;5109681;28;20193;-59
2023/01/06 00:03:05;;;;;;;1.67;0.87;;;;;;;9.01;81.95;99194.84;5109539;28;20229;-59
2023/01/06 00:05:31;;;;;;;1.43;0.90;;;;;;;9.02;81.68;99203.34;5109688;28;20190;-59
2023/01/06 00:07:59;;;;;;;0.97;0.87;;;;;;;9.05;81.84;99208.22;5109474;28;20208;-59
2023/01/06 00:10:25;;;;;;;1.83;1.40;;;;;;;9.10;81.38;99216.38;5109587;28;20658;-61
2023/01/06 00:12:53;;;;;;;0.97;0.83;;;;;;;9.15;80.60;99233.97;5109635;28;20201;-61
2023/01/06 00:15:20;;;;;;;3.93;1.40;;;;;;;9.16;80.67;99243.22;5109789;28;20213;-61
2023/01/06 00:17:48;;;;;;;2.33;1.73;;;;;;;9.12;80.82;99242.63;5109441;28;20208;-61
2023/01/06 00:20:15;;;;;;;1.93;1.03;;;;;;;9.16;80.42;99236.44;5109464;28;20227;-61
2023/01/06 00:22:43;;;;;;;1.80;1.10;;;;;;;9.10;80.97;99252.09;5109285;28;20796;-60
2023/01/06 00:25:10;;;;;;;1.00;1.00;;;;;;;9.01;80.99;99258.59;5109741;28;20259;-59
2023/01/06 00:27:38;;;;;;;1.07;0.80;;;;;;;8.99;81.40;99251.97;5109446;28;20241;-59
2023/01/06 00:30:07;;;;;;;1.70;1.10;;;;;;;8.89;81.24;99259.38;5109396;28;20221;-61
2023/01/06 00:32:34;;;;;;;1.07;0.80;;;;;;;8.92;81.40;99271.94;5109474;28;20289;-61
2023/01/06 00:35:03;;;;;;;1.83;1.00;;;;;;;8.79;82.04;99259.13;5109292;28;20248;-61
2023/01/06 00:37:30;;;;;;;5.23;1.43;;;;;;;8.75;82.50;99267.06;5109428;28;20683;-61
2023/01/06 00:39:57;;;;;;;0.53;0.53;;;;;;;8.68;82.40;99279.38;5109327;28;20225;-61
2023/01/06 00:42:24;;;;;;;1.90;1.07;;;;;;;8.65;82.77;99277.00;5109606;28;20235;-61
2023/01/06 00:44:52;;;;;;;1.87;1.00;;;;;;;8.55;83.05;99281.00;5109694;28;20229;-61
2023/01/06 00:47:19;;;;;;;1.27;1.10;;;;;;;8.54;83.28;99289.59;5109437;28;20209;-61
2023/01/06 00:49:46;;;;;;;1.27;0.90;;;;;;;8.48;83.26;99287.41;5111297;28;20221;-61
2023/01/06 00:52:15;;;;;;;1.60;1.07;;;;;;;8.41;83.59;99284.41;5112908;28;20227;-61
2023/01/06 00:54:42;;;;;;;1.90;1.50;;;;;;;8.36;84.01;99292.28;5112935;28;20228;-59
2023/01/06 00:57:09;;;;;;;2.63;0.90;;;;;;;8.32;84.11;99284.91;5112860;28;20190;-59
2023/01/06 00:59:36;;;;;;;1.50;1.10;;;;;;;8.23;84.41;99286.31;5112716;28;20239;-59
2023/01/06 01:02:03;;;;;;;0.93;0.83;;;;;;;8.13;85.05;99285.19;5112638;28;20565;-59
2023/01/06 01:04:31;;;;;;;0.80;0.80;;;;;;;8.05;85.31;99292.47;5113165;28;20318;-61
2023/01/06 01:06:59;;;;;;;0.73;0.67;;;;;;;7.94;86.08;99286.28;5112699;28;20208;-59
2023/01/06 01:09:29;;;;;;;1.63;1.20;;;;;;;7.94;86.01;99300.72;5112567;28;20217;-61
2023/01/06 01:12:13;;;;;;;1.00;0.90;;;;;;;7.94;86.42;99311.75;5112537;28;20194;-59
2023/01/06 01:14:43;;;;;;;1.07;0.87;;;;;;;7.97;85.96;99320.09;5112756;28;20355;-59
2023/01/06 01:17:11;;;;;;;2.40;1.03;;;;;;;7.96;86.25;99318.47;5112706;28;20564;-59
2023/01/06 01:19:39;;;;;;;0.90;0.80;;;;;;;7.83;86.98;99324.28;5112664;28;20604;-59
2023/01/06 01:22:07;;;;;;;0.90;0.90;;;;;;;7.83;87.04;99326.81;5112291;28;20194;-59
2023/01/06 01:24:35;;;;;;;1.80;1.20;;;;;;;7.77;87.08;99328.91;5112309;28;20244;-59
2023/01/06 01:27:02;;;;;;;0.97;0.90;;;;;;;7.76;87.57;99317.06;5112089;28;20586;-59
2023/01/06 01:29:29;;;;;;;1.40;0.80;;;;;;;7.74;87.61;99313.78;5112409;28;20228;-61
2023/01/06 01:31:56;;;;;;;0.63;0.57;;;;;;;7.65;87.95;99310.03;5112024;28;20197;-61
2023/01/06 01:34:23;;;;;;;0.67;0.60;;;;;;;7.64;87.87;99308.41;5112427;28;20224;-58
2023/01/06 01:36:52;;;;;;;1.07;0.97;;;;;;;7.55;88.41;99308.91;5112056;28;20582;-59
2023/01/06 01:39:20;;;;;;;1.13;0.87;;;;;;;7.48;88.78;99316.91;5112215;28;20213;-59
2023/01/06 01:41:49;;;;;;;1.60;1.13;;;;;;;7.46;88.83;99316.16;5111942;28;20197;-61
2023/01/06 01:44:53;;;;;;;0.80;0.67;;;;;;;7.39;89.12;99309.78;5112166;28;20241;-60
2023/01/06 01:47:26;;;;;;;0.83;0.40;;;;;;;7.30;90.05;99310.28;5112117;28;20672;-59
2023/01/06 01:49:57;;;;;;;0.97;0.93;;;;;;;7.27;90.26;99315.53;5112191;28;20209;-59
2023/01/06 01:52:25;;;;;;;0.70;0.70;;;;;;;7.24;90.33;99305.53;5112102;27;20193;-61
2023/01/06 01:54:54;;;;;;;0.60;0.60;;;;;;;7.21;90.67;99311.63;5111988;28;20221;-61
2023/01/06 01:57:29;;;;;;;2.30;0.97;;;;;;;7.14;90.75;99306.94;5111836;28;20665;-61
2023/01/06 01:59:56;;;;;;;1.10;1.00;;;;;;;7.18;90.66;99310.94;5111457;28;20713;-59
2023/01/06 02:02:24;;;;;;;1.03;0.70;;;;;;;7.15;90.95;99303.47;5111909;28;20205;-59
2023/01/06 02:04:55;;;;;;;1.00;0.67;;;;;;;7.14;90.78;99315.38;5111782;28;20229;-59
2023/01/06 02:07:25;;;;;;;0.80;0.80;;;;;;;7.10;91.15;99313.94;5111205;28;20205;-59
2023/01/06 02:10:01;;;;;;;1.27;1.00;;;;;;;7.17;91.04;99314.41;5111391;28;20213;-59
2023/01/06 02:12:30;;;;;;;1.10;1.00;;;;;;;7.21;90.79;99311.63;5111350;28;20196;-59
2023/01/06 02:14:56;;;;;;;1.47;1.13;;;;;;;7.15;91.05;99316.19;5111586;28;20230;-59
2023/01/06 02:17:41;;;;;;;1.40;1.13;;;;;;;7.19;90.77;99312.59;5111421;28;20198;-61
2023/01/06 02:20:36;;;;;;;1.37;1.00;;;;;;;7.13;90.84;99312.94;5111045;28;20217;-61
2023/01/06 02:23:26;;;;;;;2.00;1.00;;;;;;;7.11;91.51;99314.75;5111104;28;20603;-61
2023/01/06 02:26:29;;;;;;;1.83;1.33;;;;;;;7.10;90.81;99308.84;5111491;27;20579;-61
2023/01/06 02:29:28;;;;;;;1.07;0.83;;;;;;;7.22;90.55;99317.53;5111324;28;20209;-59
2023/01/06 02:32:02;;;;;;;1.17;0.80;;;;;;;7.15;90.67;99308.56;5095202;28;20198;-61
2023/01/06 02:34:43;;;;;;;0.53;0.53;;;;;;;7.16;90.54;99322.94;5111327;28;20213;-61
2023/01/06 02:37:27;;;;;;;1.77;1.00;;;;;;;7.17;90.23;99315.22;5110985;28;20205;-59
2023/01/06 02:40:10;;;;;;;0.67;0.47;;;;;;;7.10;90.67;99308.00;5110820;28;20212;-59
2023/01/06 02:42:43;;;;;;;0.87;0.87;;;;;;;7.10;90.67;99313.94;5110929;28;20201;-59
2023/01/06 02:45:18;;;;;;;0.83;0.80;;;;;;;7.06;90.56;99322.59;5110653;28;20281;-59
2023/01/06 02:47:56;;;;;;;0.67;0.60;;;;;;;7.00;90.93;99328.84;5110820;28;20664;-59
2023/01/06 02:50:34;;;;;;;0.30;0.30;;;;;;;7.01;90.88;99330.50;5110672;27;20197;-59
2023/01/06 02:53:08;;;;;;;1.13;1.07;;;;;;;6.98;90.91;99325.56;5110528;28;20205;-59
2023/01/06 02:55:38;;;;;;;1.47;0.80;;;;;;;6.95;91.24;99340.16;5110633;28;20201;-59
2023/01/06 02:58:11;;;;;;;2.33;1.27;;;;;;;6.99;91.26;99344.19;5110361;28;20193;-59
2023/01/06 03:00:42;;;;;;;0.60;0.60;;;;;;;6.95;91.33;99343.53;5110543;28;20673;-59
2023/01/06 03:03:14;;;;;;;0.87;0.87;;;;;;;7.02;90.87;99341.47;5110364;28;20235;-58
2023/01/06 03:05:43;;;;;;;0.53;0.17;;;;;;;6.83;91.38;99339.06;5110560;28;20192;-59
2023/01/06 03:08:14;;;;;;;0.60;0.60;;;;;;;6.75;92.33;99348.84;5110389;28;20653;-61
2023/01/06 03:10:44;;;;;;;0.87;0.53;;;;;;;6.66;92.54;99339.13;5110216;28;20198;-61
2023/01/06 03:13:15;;;;;;;0.87;0.67;;;;;;;6.73;92.29;99341.28;5109690;28;20209;-61
2023/01/06 03:15:42;;;;;;;0.47;0.47;;;;;;;6.88;91.96;99332.03;5110193;28;20628;-61
2023/01/06 03:18:11;;;;;;;1.43;0.60;;;;;;;6.96;91.82;99351.97;5110273;28;20208;-61
2023/01/06 03:20:38;;;;;;;0.40;0.40;;;;;;;6.86;91.63;99356.69;5110380;28;20201;-61
2023/01/06 03:23:05;;;;;;;0.20;0.20;;;;;;;6.83;91.80;99367.03;5110057;28;20287;-61
2023/01/06 03:25:32;;;;;;;0.20;0.20;;;;;;;6.74;92.37;99370.06;5110029;28;20201;-61
2023/01/06 03:27:58;;;;;;;0.67;0.67;;;;;;;6.69;92.80;99372.00;5109752;28;20201;-61
2023/01/06 03:30:34;;;;;;;1.33;0.63;;;;;;;6.72;92.56;99369.31;5110041;28;20189;-61
2023/01/06 03:33:05;;;;;;;0.50;0.50;;;;;;;6.70;92.44;99374.47;5110159;28;20210;-61
2023/01/06 03:35:46;;;;;;;0.67;0.67;;;;;;;6.75;92.51;99380.16;5109942;28;20201;-61
2023/01/06 03:38:22;;;;;;;0.40;0.40;;;;;;;6.67;92.52;99377.19;5109753;28;20204;-61
2023/01/06 03:40:54;;;;;;;0.80;0.60;;;;;;;6.70;92.88;99373.66;5110097;28;20318;-61
2023/01/06 03:43:26;;;;;;;0.60;0.60;;;;;;;6.65;93.21;99378.16;5109847;28;20245;-61
2023/01/06 03:46:06;;;;;;;0.50;0.50;;;;;;;6.59;93.65;99384.38;5109905;28;20653;-62
2023/01/06 03:48:43;;;;;;;0.40;0.40;;;;;;;6.55;93.87;99383.72;5109727;28;20221;-61
2023/01/06 03:51:25;;;;;;;0.40;0.40;;;;;;;6.51;94.30;99389.84;5109794;28;20192;-61
2023/01/06 03:54:00;;;;;;;0.83;0.50;;;;;;;6.52;94.37;99393.22;5110061;28;20216;-61
2023/01/06 03:56:30;;;;;;;1.40;0.70;;;;;;;6.49;94.46;99396.72;5109786;28;20192;-61
2023/01/06 03:59:01;;;;;;;0.30;0.27;;;;;;;6.53;94.79;99400.75;5109804;28;20221;-61
2023/01/06 04:01:29;;;;;;;0.53;0.53;;;;;;;6.42;95.02;99387.75;5109745;28;20196;-61
2023/01/06 04:03:56;;;;;;;1.37;0.60;;;;;;;6.41;95.13;99396.28;5109664;28;20235;-61
2023/01/06 04:06:24;;;;;;;0.83;0.70;;;;;;;6.43;95.27;99398.72;5109923;28;20197;-61
2023/01/06 04:08:51;;;;;;;0.50;0.50;;;;;;;6.43;95.26;99402.13;5109748;28;20730;-61
2023/01/06 04:14:03;;;;;;;0.50;0.50;;;;;;;6.70;94.15;99402.44;5109370;28;20717;-61
2023/01/06 04:16:30;;;;;;;0.90;0.90;;;;;;;6.68;94.12;99403.41;5109597;28;20193;-61
2023/01/06 04:18:57;;;;;;;0.53;0.53;;;;;;;6.66;94.05;99411.13;5109690;28;20227;-59
2023/01/06 04:21:25;;;;;;;1.80;1.07;;;;;;;6.56;94.46;99415.84;5109843;28;20197;-61
2023/01/06 04:23:52;;;;;;;1.03;0.67;;;;;;;6.54;94.80;99416.81;5110249;28;20237;-61
2023/01/06 04:26:19;;;;;;;1.57;1.07;;;;;;;6.49;94.92;99424.66;5113715;28;20201;-61
2023/01/06 04:28:46;;;;;;;0.80;0.80;;;;;;;6.47;95.04;99426.47;5113474;28;20601;-61
2023/01/06 04:31:13;;;;;;;0.50;0.50;;;;;;;6.45;95.07;99428.25;5113265;28;20219;-59
2023/01/06 04:33:40;;;;;;;0.40;0.40;;;;;;;6.41;95.05;99431.84;5113117;28;20229;-59
2023/01/06 04:36:08;;;;;;;0.20;0.20;;;;;;;6.33;95.21;99433.94;5113299;27;20476;-61
2023/01/06 04:38:37;;;;;;;1.47;1.03;;;;;;;6.28;95.33;99435.88;5113417;28;20244;-61
2023/01/06 04:41:04;;;;;;;0.30;0.30;;;;;;;6.26;95.69;99437.69;5113434;28;20197;-59
2023/01/06 04:43:31;;;;;;;0.60;0.60;;;;;;;6.19;96.05;99436.31;5112936;28;20334;-59
2023/01/06 04:45:58;;;;;;;0.40;0.40;;;;;;;6.21;95.78;99434.53;5113466;28;20190;-59
2023/01/06 04:48:25;;;;;;;1.77;0.90;;;;;;;6.23;96.19;99431.03;5113053;28;20224;-59
2023/01/06 04:51:00;;;;;;;0.30;0.30;;;;;;;6.27;95.94;99429.16;5113106;28;20189;-61
2023/01/06 04:53:27;;;;;;;1.97;1.10;;;;;;;6.23;96.18;99417.53;5113059;27;20221;-59
2023/01/06 04:55:55;;;;;;;1.53;1.10;;;;;;;6.20;96.19;99412.59;5112913;28;20208;-58
2023/01/06 04:58:22;;;;;;;0.90;0.87;;;;;;;6.17;96.28;99417.78;5113167;28;20721;-58
2023/01/06 05:00:49;;;;;;;0.77;0.77;;;;;;;6.22;96.45;99414.13;5112787;28;20209;-58
2023/01/06 05:03:16;;;;;;;0.40;0.40;;;;;;;6.26;95.85;99422.44;5112740;28;20225;-59
2023/01/06 05:05:43;;;;;;;1.93;0.73;;;;;;;6.34;96.05;99427.94;5112568;28;20252;-61
2023/01/06 05:08:09;;;;;;;1.37;1.27;;;;;;;6.34;95.52;99428.78;5112695;28;20201;-61
2023/01/06 05:10:36;;;;;;;0.80;0.80;;;;;;;6.36;95.32;99443.94;5112707;28;20216;-61
2023/01/06 05:13:04;;;;;;;0.43;0.43;;;;;;;6.38;95.52;99447.22;5112344;28;20688;-61
2023/01/06 05:15:31;;;;;;;0.50;0.50;;;;;;;6.37;95.25;99445.59;5112571;28;20204;-61
2023/01/06 05:17:58;;;;;;;1.00;0.80;;;;;;;6.31;95.29;99466.19;5112547;28;20640;-61
2023/01/06 05:20:25;;;;;;;0.47;0.47;;;;;;;6.35;95.42;99467.69;5112558;28;20201;-61
2023/01/06 05:22:52;;;;;;;2.87;1.10;;;;;;;6.24;95.36;99459.78;5112472;28;20193;-59
2023/01/06 05:25:18;;;;;;;1.90;1.23;;;;;;;6.21;95.47;99462.47;5112559;28;20244;-59
2023/01/06 05:27:45;;;;;;;0.73;0.73;;;;;;;6.21;95.61;99465.00;5112323;28;20209;-59
2023/01/06 05:30:14;;;;;;;0.60;0.60;;;;;;;6.17;95.63;99469.41;5112181;28;20209;-59
2023/01/06 05:32:41;;;;;;;0.60;0.60;;;;;;;6.12;95.90;99481.50;5112301;28;20197;-59
2023/01/06 05:35:08;;;;;;;1.20;0.93;;;;;;;6.05;95.96;99475.91;5111488;28;20606;-59
2023/01/06 05:37:35;;;;;;;1.30;0.70;;;;;;;6.01;96.46;99482.00;5111974;28;20197;-58
2023/01/06 05:40:02;;;;;;;0.50;0.50;;;;;;;6.02;96.34;99481.13;5111985;28;20227;-61
2023/01/06 05:42:29;;;;;;;0.60;0.37;;;;;;;5.93;96.51;99484.06;5111857;28;20665;-61
2023/01/06 05:44:56;;;;;;;0.57;0.57;;;;;;;5.93;96.69;99490.84;5111842;28;20225;-61
2023/01/06 05:47:24;;;;;;;1.07;0.90;;;;;;;5.93;96.80;99499.28;5112049;28;20189;-61
2023/01/06 05:49:51;;;;;;;1.30;0.70;;;;;;;5.88;96.84;99494.41;5111858;28;20221;-61
2023/01/06 05:52:18;;;;;;;0.80;0.60;;;;;;;5.85;97.26;99496.28;5111885;28;20195;-61
2023/01/06 05:54:45;;;;;;;1.00;0.77;;;;;;;5.86;97.78;99495.38;5111834;28;20213;-59
2023/01/06 05:57:12;;;;;;;1.10;0.67;;;;;;;5.88;97.41;99494.41;5111581;28;20261;-58
2023/01/06 05:59:39;;;;;;;1.87;1.03;;;;;;;5.88;97.16;99496.16;5111580;28;20581;-61
2023/01/06 06:02:06;;;;;;;1.47;0.83;;;;;;;5.92;97.20;99501.88;5111609;28;20197;-61
2023/01/06 06:04:34;;;;;;;0.60;0.60;;;;;;;5.76;97.39;99500.06;5111892;28;20239;-61
2023/01/06 06:07:01;;;;;;;1.07;0.87;;;;;;;5.71;97.81;99506.25;5111653;28;20204;-61
2023/01/06 06:09:28;;;;;;;1.07;0.97;;;;;;;5.60;98.30;99505.00;5111442;28;20216;-61
2023/01/06 06:11:55;;;;;;;0.50;0.50;;;;;;;5.59;98.68;99503.38;5111331;28;20197;-61
2023/01/06 06:14:22;;;;;;;1.93;1.30;;;;;;;5.55;99.00;99506.09;5111738;27;20593;-59
2023/01/06 06:16:48;;;;;;;0.70;0.50;;;;;;;5.55;99.41;99509.44;5111448;28;20205;-61
2023/01/06 06:19:15;;;;;;;0.60;0.50;;;;;;;5.57;99.58;99500.06;5111109;28;20634;-59
2023/01/06 06:21:44;;;;;;;2.03;1.03;;;;;;;5.62;99.77;99505.75;5111177;28;20669;-59
2023/01/06 06:24:11;;;;;;;1.20;0.83;;;;;;;5.63;99.70;99509.94;5111101;28;20237;-59
2023/01/06 06:26:37;;;;;;;0.70;0.67;;;;;;;5.67;99.80;99514.00;5111177;28;20669;-59
2023/01/06 06:29:05;;;;;;;0.80;0.80;;;;;;;5.72;99.75;99505.34;5111143;28;20215;-61
2023/01/06 06:31:32;;;;;;;0.80;0.80;;;;;;;5.79;99.48;99510.06;5111672;28;20200;-61
2023/01/06 06:34:00;;;;;;;1.40;0.67;;;;;;;5.88;99.23;99518.97;5110735;28;20230;-61
2023/01/06 06:36:28;;;;;;;0.53;0.53;;;;;;;5.92;98.85;99517.13;5111060;28;20197;-61
2023/01/06 06:38:57;;;;;;;0.60;0.60;;;;;;;5.99;98.65;99523.56;5110704;28;20572;-61
2023/01/06 06:41:25;;;;;;;7.30;0.90;;;;;;;6.03;98.49;99528.44;5110915;28;20205;-61
2023/01/06 06:43:52;;;;;;;2.40;1.10;;;;;;;6.20;97.84;99525.13;5110862;28;20233;-61
2023/01/06 06:46:20;;;;;;;0.27;0.27;;;;;;;6.26;97.08;99539.25;5110128;28;20193;-58
2023/01/06 06:48:48;;;;;;;0.83;0.63;;;;;;;6.42;96.32;99541.88;5110805;28;20217;-59
2023/01/06 06:51:17;;;;;;;0.40;0.40;;;;;;;6.48;95.99;99547.47;5110589;28;20632;-61
2023/01/06 06:53:45;;;;;;;0.83;0.73;;;;;;;6.52;95.57;99551.53;5110562;28;20793;-61
2023/01/06 06:56:15;;;;;;;0.50;0.50;;;;;;;6.61;95.47;99551.97;5110530;28;20205;-59
2023/01/06 06:58:42;;;;;;;0.63;0.60;;;;;;;6.67;95.57;99554.22;5110804;28;20213;-59
2023/01/06 07:01:11;;;;;;;0.43;0.43;;;;;;;6.76;95.05;99553.75;5110836;28;20215;-59
2023/01/06 07:03:38;;;;;;;2.03;0.73;;;;;;;6.89;94.57;99552.25;5110315;28;20213;-61
2023/01/06 07:06:07;;;;;;;0.93;0.83;;;;;;;7.06;93.67;99550.59;5110362;28;20231;-61
2023/01/06 07:08:34;;;;;;;1.23;1.00;;;;;;;7.26;92.34;99552.94;5110488;28;20221;-59
2023/01/06 07:11:01;;;;;;;3.00;1.53;;;;;;;7.43;91.00;99560.53;5110117;28;20205;-61
2023/01/06 07:13:30;;;;;;;1.27;0.70;;;;;;;7.63;90.36;99571.41;5110463;28;20217;-61
2023/01/06 07:15:57;;;;;;;0.57;0.50;;;;;;;7.80;89.14;99583.25;5110294;28;20205;-61
2023/01/06 07:18:23;;;;;;;1.00;0.60;;;;;;;7.98;88.70;99586.53;5110418;28;20672;-61
2023/01/06 07:20:52;;;;;;;1.20;1.10;;;;;;;8.05;88.36;99596.31;5110217;28;20576;-59
2023/01/06 07:23:20;;;;;;;0.80;0.80;;;;;;;8.19;87.56;99595.56;5110507;28;20221;-59
2023/01/06 07:25:51;;;;;;;0.67;0.50;;;;;;;8.37;86.94;99607.28;5110066;28;20233;-59
2023/01/06 07:28:18;;;;;;;0.67;0.67;;;;;;;8.61;85.94;99606.91;5110062;28;20217;-59
2023/01/06 07:30:47;;;;;;;0.60;0.60;;;;;;;8.75;85.03;99609.47;5110100;28;20212;-59
2023/01/06 07:33:14;;;;;;;2.13;0.70;;;;;;;8.74;84.68;99601.94;5109940;28;20223;-59
2023/01/06 07:35:41;;;;;;;1.33;0.90;;;;;;;8.74;84.54;99605.28;5110020;28;20197;-61
2023/01/06 07:38:09;;;;;;;1.47;0.77;;;;;;;8.82;83.92;99600.59;5109769;28;20201;-61
2023/01/06 07:40:36;;;;;;;0.87;0.87;;;;;;;8.94;83.64;99608.44;5109949;28;20201;-59
2023/01/06 07:43:05;;;;;;;1.83;1.70;;;;;;;9.00;82.94;99615.75;5109710;28;20201;-59
2023/01/06 07:45:32;;;;;;;0.50;0.50;;;;;;;9.14;82.89;99620.88;5110160;28;20228;-59
2023/01/06 07:48:00;;;;;;;1.17;0.97;;;;;;;9.16;82.67;99629.28;5109774;28;20201;-59
2023/01/06 07:50:27;;;;;;;1.07;0.70;;;;;;;9.25;82.47;99638.94;5109768;28;20201;-59
2023/01/06 07:52:57;;;;;;;0.60;0.60;;;;;;;9.35;81.84;99638.41;5110019;28;20201;-59
2023/01/06 07:55:24;;;;;;;0.83;0.50;;;;;;;9.34;80.96;99646.94;5109914;28;20201;-59
2023/01/06 07:57:51;;;;;;;0.60;0.60;;;;;;;9.51;80.45;99647.63;5110587;28;20710;-59
2023/01/06 08:00:18;;;;;;;1.00;0.80;;;;;;;9.56;80.30;99647.34;5114142;28;20213;-62
2023/01/06 08:02:45;;;;;;;1.03;0.77;;;;;;;9.49;78.94;99646.06;5113918;28;20197;-61
2023/01/06 08:05:13;;;;;;;1.57;0.63;;;;;;;9.52;79.07;99653.56;5114099;28;20225;-59
2023/01/06 08:07:40;;;;;;;1.47;0.83;;;;;;;9.69;78.71;99658.47;5113956;28;20208;-59
2023/01/06 08:10:07;;;;;;;0.80;0.80;;;;;;;9.80;77.74;99659.56;5113691;28;20637;-59
2023/01/06 08:12:34;;;;;;;0.80;0.63;;;;;;;9.94;77.03;99650.16;5113597;28;20609;-59
2023/01/06 08:15:01;;;;;;;0.53;0.53;;;;;;;10.10;77.46;99652.63;5113717;27;20228;-59
2023/01/06 08:17:29;;;;;;;1.50;1.17;;;;;;;10.33;75.82;99652.97;5113805;28;20196;-59
2023/01/06 08:19:56;;;;;;;0.70;0.70;;;;;;;10.43;74.95;99659.13;5113682;28;20213;-59
2023/01/06 08:22:24;;;;;;;0.70;0.70;;;;;;;10.48;74.68;99656.31;5113791;28;20689;-59
2023/01/06 08:24:51;;;;;;;0.50;0.50;;;;;;;10.36;73.72;99663.00;5113392;28;20225;-59
2023/01/06 08:27:19;;;;;;;0.80;0.80;;;;;;;10.38;73.70;99677.31;5113710;28;20208;-59
2023/01/06 08:29:46;;;;;;;0.40;0.40;;;;;;;10.56;73.59;99665.13;5113707;28;20247;-59
2023/01/06 08:32:13;;;;;;;0.67;0.67;;;;;;;10.64;72.50;99668.00;5113346;28;20209;-59
2023/01/06 08:34:40;;;;;;;0.57;0.53;;;;;;;10.69;72.56;99667.72;5113289;28;20216;-61
2023/01/06 08:37:07;;;;;;;1.73;1.10;;;;;;;10.65;72.84;99669.66;5113235;28;20573;-59
2023/01/06 08:39:35;;;;;;;0.57;0.43;;;;;;;11.08;71.30;99672.03;5113345;28;20739;-59
2023/01/06 08:42:02;;;;;;;0.93;0.60;;;;;;;11.25;70.62;99667.53;5113079;28;20194;-59
2023/01/06 08:44:29;;;;;;;2.00;1.10;;;;;;;11.12;70.29;99671.84;5113390;28;20225;-61
2023/01/06 08:46:56;;;;;;;0.67;0.50;;;;;;;11.33;68.99;99675.53;5113079;28;20240;-59
2023/01/06 08:49:23;;;;;;;1.63;0.90;;;;;;;11.15;69.93;99661.41;5113346;28;20741;-59
2023/01/06 08:51:49;;;;;;;0.70;0.70;;;;;;;11.22;70.47;99662.63;5113071;28;20193;-59
2023/01/06 08:54:16;;;;;;;1.50;0.77;;;;;;;11.42;69.45;99674.91;5113539;28;20217;-59
2023/01/06 08:56:44;;;;;;;0.70;0.70;;;;;;;11.41;68.75;99660.50;5112959;28;20212;-59
2023/01/06 08:59:14;;;;;;;1.17;0.77;;;;;;;11.23;69.50;99654.84;5113083;28;20220;-62
2023/01/06 09:01:42;;;;;;;0.73;0.67;;;;;;;11.24;69.43;99655.66;5112873;28;20463;-62
2023/01/06 09:04:09;;;;;;;0.40;0.33;;;;;;;11.18;70.27;99645.84;5113012;28;20221;-61
2023/01/06 09:06:37;;;;;;;0.70;0.70;;;;;;;11.23;69.43;99644.63;5112651;28;20229;-62
2023/01/06 09:09:06;;;;;;;0.50;0.50;;;;;;;11.21;69.78;99635.41;5112077;28;20221;-62
2023/01/06 09:11:33;;;;;;;0.70;0.50;;;;;;;11.34;69.56;99636.19;5112218;28;20201;-59
2023/01/06 09:14:01;;;;;;;0.67;0.63;;;;;;;11.29;68.54;99639.09;5112712;28;20217;-60
2023/01/06 09:16:28;;;;;;;1.20;0.60;;;;;;;11.27;68.24;99634.97;5112834;28;20594;-59
2023/01/06 09:18:55;;;;;;;0.50;0.40;;;;;;;11.30;68.05;99629.66;5112446;28;20221;-59
2023/01/06 09:21:23;;;;;;;0.87;0.60;;;;;;;11.55;67.91;99623.72;5112747;28;20197;-59
2023/01/06 09:23:50;;;;;;;1.63;1.03;;;;;;;11.78;67.43;99625.53;5112722;28;20228;-60
2023/01/06 09:26:18;;;;;;;0.87;0.80;;;;;;;11.62;66.42;99619.81;5112310;28;20235;-59
2023/01/06 09:28:46;;;;;;;1.07;0.77;;;;;;;11.88;65.57;99612.94;5112110;28;20239;-59
2023/01/06 09:31:16;;;;;;;2.03;0.90;;;;;;;11.77;65.19;99623.06;5112633;28;20299;-59
2023/01/06 09:33:43;;;;;;;0.70;0.70;;;;;;;11.83;64.70;99617.53;5112214;28;20232;-59
2023/01/06 09:36:10;;;;;;;0.97;0.60;;;;;;;11.79;64.35;99618.66;5112503;28;20227;-62
2023/01/06 09:38:37;;;;;;;0.57;0.47;;;;;;;11.95;63.64;99618.44;5112298;28;20220;-62
2023/01/06 09:41:20;;;;;;;0.83;0.60;;;;;;;11.96;63.36;99608.09;5112411;28;20252;-62
2023/01/06 09:43:53;;;;;;;1.07;0.67;;;;;;;12.16;62.68;99618.72;5111861;28;20229;-62
2023/01/06 09:46:25;;;;;;;1.63;0.50;;;;;;;12.32;61.40;99613.31;5112624;28;20219;-62
2023/01/06 09:48:59;;;;;;;1.00;0.60;;;;;;;12.38;61.51;99618.81;5112026;28;20214;-59
2023/01/06 09:51:28;;;;;;;1.20;0.93;;;;;;;12.33;60.99;99620.88;5112064;28;20265;-62
2023/01/06 09:54:00;;;;;;;0.70;0.40;;;;;;;12.51;59.98;99633.31;5111602;28;20709;-62
2023/01/06 09:56:27;;;;;;;4.53;1.10;;;;;;;12.97;59.13;99624.84;5111829;28;20197;-59
2023/01/06 09:59:04;;;;;;;0.73;0.73;;;;;;;13.07;58.54;99636.91;5111648;28;20218;-59
2023/01/06 10:01:38;;;;;;;1.03;0.90;;;;;;;12.96;59.46;99638.63;5111907;28;20204;-59
2023/01/06 10:04:04;;;;;;;0.57;0.57;;;;;;;13.27;58.01;99632.91;5111625;28;20217;-59
2023/01/06 10:06:36;;;;;;;1.07;0.57;;;;;;;13.47;57.00;99638.31;5111745;28;20230;-59
2023/01/06 10:09:12;;;;;;;0.70;0.70;;;;;;;13.62;56.51;99642.28;5112008;28;20287;-63
2023/01/06 10:11:52;;;;;;;0.93;0.50;;;;;;;13.41;56.20;99643.88;5111447;28;20190;-61
2023/01/06 10:14:29;;;;;;;1.13;0.53;;;;;;;12.95;57.68;99631.88;5111719;28;20227;-60
2023/01/06 10:17:15;;;;;;;0.67;0.63;;;;;;;12.84;58.04;99641.16;5111401;27;20201;-63
2023/01/06 10:19:53;;;;;;;1.70;1.27;;;;;;;13.11;57.33;99638.31;5111556;28;20509;-63
2023/01/06 10:22:28;;;;;;;1.37;0.80;;;;;;;13.03;57.68;99648.34;5111444;28;20211;-63
2023/01/06 10:25:02;;;;;;;1.00;0.90;;;;;;;13.20;57.43;99634.25;5111425;28;20219;-62
2023/01/06 10:27:36;;;;;;;1.33;0.87;;;;;;;13.27;56.97;99640.59;5111053;28;20198;-61
2023/01/06 10:30:16;;;;;;;1.93;0.77;;;;;;;13.42;57.62;99635.25;5111214;28;20234;-60
2023/01/06 10:32:45;;;;;;;0.50;0.50;;;;;;;13.16;56.48;99639.75;5111100;28;20197;-63
2023/01/06 10:35:15;;;;;;;1.13;0.83;;;;;;;13.63;56.21;99623.34;5111249;28;20226;-60
2023/01/06 10:37:44;;;;;;;2.47;1.00;;;;;;;13.53;56.27;99622.44;5111264;28;20543;-63
2023/01/06 10:40:18;;;;;;;0.97;0.87;;;;;;;13.80;55.43;99630.56;5110930;28;20712;-60
2023/01/06 10:42:58;;;;;;;1.07;0.80;;;;;;;13.95;55.30;99614.91;5110936;28;20860;-63
2023/01/06 10:45:34;;;;;;;1.03;0.67;;;;;;;13.50;55.29;99618.34;5110956;28;20246;-60
2023/01/06 10:48:05;;;;;;;0.50;0.50;;;;;;;13.33;55.25;99611.91;5110530;28;20210;-61
2023/01/06 10:50:33;;;;;;;0.90;0.60;;;;;;;13.09;56.41;99616.28;5110851;28;20568;-61
2023/01/06 10:53:01;;;;;;;0.80;0.80;;;;;;;13.30;56.87;99604.44;5110612;28;20203;-61
2023/01/06 10:55:41;;;;;;;0.60;0.60;;;;;;;13.42;55.58;99594.97;5110870;28;20201;-61
2023/01/06 10:58:17;;;;;;;0.73;0.73;;;;;;;13.58;55.79;99602.31;5110883;28;20206;-61
2023/01/06 11:01:00;;;;;;;0.67;0.67;;;;;;;13.40;56.61;99596.03;5110884;28;20728;-63
2023/01/06 11:03:29;;;;;;;1.10;1.00;;;;;;;13.48;55.87;99601.41;5108822;28;20236;-63
2023/01/06 11:06:15;;;;;;;4.10;1.20;;;;;;;13.52;56.48;99601.03;5110780;28;20284;-63
2023/01/06 11:08:42;;;;;;;1.27;1.07;;;;;;;13.54;55.19;99593.22;5110682;28;20230;-60
2023/01/06 11:11:14;;;;;;;2.00;0.87;;;;;;;13.39;55.36;99595.22;5110459;28;20222;-61
2023/01/06 11:13:46;;;;;;;1.10;0.80;;;;;;;13.41;55.84;99595.06;5110628;28;20222;-62
2023/01/06 11:16:19;;;;;;;2.27;1.67;;;;;;;13.49;54.97;99590.19;5110807;28;20204;-60
2023/01/06 11:18:54;;;;;;;1.90;1.17;;;;;;;13.90;55.33;99599.03;5110302;28;20731;-63
2023/01/06 11:21:21;;;;;;;3.60;1.33;;;;;;;13.63;54.84;99591.69;5110720;28;20283;-63
2023/01/06 11:23:49;;;;;;;1.67;1.27;;;;;;;13.74;55.06;99595.06;5110667;28;20217;-62
2023/01/06 11:26:18;;;;;;;1.13;1.00;;;;;;;13.70;54.92;99603.13;5110344;28;20232;-61
2023/01/06 11:28:47;;;;;;;1.33;0.63;;;;;;;13.66;54.06;99602.56;5109877;28;20238;-62
2023/01/06 11:31:20;;;;;;;1.17;0.93;;;;;;;13.65;54.89;99603.50;5110276;28;20624;-63
2023/01/06 11:33:50;;;;;;;1.93;1.00;;;;;;;13.38;55.93;99600.44;5109697;28;20218;-61
2023/01/06 11:36:21;;;;;;;0.60;0.40;;;;;;;12.99;56.11;99602.47;5110440;28;20206;-61
2023/01/06 11:38:52;;;;;;;1.20;0.70;;;;;;;12.97;55.86;99599.19;5110353;28;20222;-62
2023/01/06 11:41:27;;;;;;;0.53;0.47;;;;;;;13.11;56.00;99596.44;5110776;28;20199;-62
2023/01/06 11:44:02;;;;;;;0.73;0.60;;;;;;;13.01;55.11;99610.88;5109851;28;20237;-62
2023/01/06 11:46:29;;;;;;;0.63;0.50;;;;;;;13.11;55.46;99601.56;5109973;28;20732;-62
2023/01/06 11:49:01;;;;;;;1.33;0.70;;;;;;;13.15;55.73;99608.13;5110379;28;20225;-62
2023/01/06 11:51:46;;;;;;;0.37;0.37;;;;;;;13.03;54.77;99614.13;5110135;28;20194;-62
2023/01/06 11:54:31;;;;;;;1.23;0.60;;;;;;;12.96;55.41;99611.22;5110235;28;20218;-62